createdAt,value
2016-09-30T00:00:13.386Z,1006.34
2016-09-30T00:01:13.376Z,1006.35
2016-09-30T00:02:13.356Z,1006.32
2016-09-30T00:03:13.341Z,1006.32
2016-09-30T00:04:13.329Z,1006.35
2016-09-30T00:05:13.312Z,1006.43
2016-09-30T00:06:13.296Z,1006.49
2016-09-30T00:07:13.277Z,1006.47
2016-09-30T00:08:13.268Z,1006.39
2016-09-30T00:09:13.256Z,1006.39
2016-09-30T00:10:13.230Z,1006.33
2016-09-30T00:11:13.233Z,1006.32
2016-09-30T00:12:13.217Z,1006.34
2016-09-30T00:13:13.188Z,1006.42
2016-09-30T00:14:13.178Z,1006.5
2016-09-30T00:15:13.159Z,1006.5
2016-09-30T00:16:13.148Z,1006.55
2016-09-30T00:17:13.127Z,1006.44
2016-09-30T00:18:13.104Z,1006.4
2016-09-30T00:19:13.099Z,1006.36
2016-09-30T00:20:13.078Z,1006.47
2016-09-30T00:21:13.065Z,1006.49
2016-09-30T00:22:13.047Z,1006.46
2016-09-30T00:23:13.030Z,1006.37
2016-09-30T00:24:13.019Z,1006.47
2016-09-30T00:25:13.002Z,1006.47
2016-09-30T00:26:12.985Z,1006.52
2016-09-30T00:27:12.968Z,1006.54
2016-09-30T00:28:12.954Z,1006.44
2016-09-30T00:29:12.937Z,1006.41
2016-09-30T00:30:12.927Z,1006.38
2016-09-30T00:31:12.905Z,1006.31
2016-09-30T00:32:12.896Z,1006.3
2016-09-30T00:33:12.874Z,1006.33
2016-09-30T00:34:12.865Z,1006.34
2016-09-30T00:35:12.848Z,1006.28
2016-09-30T00:36:12.838Z,1006.28
2016-09-30T00:37:12.810Z,1006.28
2016-09-30T00:38:12.799Z,1006.3
2016-09-30T00:39:12.787Z,1006.33
2016-09-30T00:40:12.767Z,1006.32
2016-09-30T00:41:12.753Z,1006.33
2016-09-30T00:42:12.738Z,1006.4
2016-09-30T00:43:12.719Z,1006.37
2016-09-30T00:44:12.719Z,1006.39
2016-09-30T00:45:12.694Z,1006.41
2016-09-30T00:46:12.680Z,1006.42
2016-09-30T00:47:12.661Z,1006.43
2016-09-30T00:48:12.648Z,1006.4
2016-09-30T00:49:12.630Z,1006.37
2016-09-30T00:50:12.617Z,1006.34
2016-09-30T00:51:12.598Z,1006.36
2016-09-30T00:52:12.640Z,1006.33
2016-09-30T00:53:12.567Z,1006.38
2016-09-30T00:54:12.559Z,1006.4
2016-09-30T00:55:12.537Z,1006.36
2016-09-30T00:56:12.525Z,1006.3
2016-09-30T00:57:12.508Z,1006.28
2016-09-30T00:58:12.495Z,1006.24
2016-09-30T00:59:12.475Z,1006.21
2016-09-30T01:00:12.466Z,1006.19
2016-09-30T01:01:12.450Z,1006.17
2016-09-30T01:02:12.435Z,1006.2
2016-09-30T01:03:12.416Z,1006.21
2016-09-30T01:04:12.408Z,1006.18
2016-09-30T01:05:12.383Z,1006.19
2016-09-30T01:06:12.368Z,1006.24
2016-09-30T01:07:12.357Z,1006.24
2016-09-30T01:08:12.336Z,1006.28
2016-09-30T01:09:12.322Z,1006.33
2016-09-30T01:10:12.307Z,1006.32
2016-09-30T01:11:12.293Z,1006.27
2016-09-30T01:12:12.273Z,1006.31
2016-09-30T01:13:12.262Z,1006.3
2016-09-30T01:14:12.244Z,1006.34
2016-09-30T01:15:12.227Z,1006.33
2016-09-30T01:16:12.214Z,1006.38
2016-09-30T01:17:12.197Z,1006.35
2016-09-30T01:18:12.181Z,1006.32
2016-09-30T01:19:12.166Z,1006.36
2016-09-30T01:20:12.152Z,1006.29
2016-09-30T01:21:12.134Z,1006.29
2016-09-30T01:22:12.125Z,1006.26
2016-09-30T01:23:12.102Z,1006.27
2016-09-30T01:24:12.084Z,1006.27
2016-09-30T01:25:12.075Z,1006.28
2016-09-30T01:26:12.056Z,1006.22
2016-09-30T01:27:12.040Z,1006.18
2016-09-30T01:28:12.026Z,1006.2
2016-09-30T01:29:12.011Z,1006.17
2016-09-30T01:30:11.995Z,1006.17
2016-09-30T01:31:11.978Z,1006.11
2016-09-30T01:32:11.962Z,1006.12
2016-09-30T01:33:11.950Z,1006.12
2016-09-30T01:34:11.933Z,1006.11
2016-09-30T01:35:11.913Z,1006.12
2016-09-30T01:36:11.902Z,1006.11
2016-09-30T01:37:11.885Z,1006.08
2016-09-30T01:38:11.874Z,1006.08
2016-09-30T01:39:11.857Z,1006.03
2016-09-30T01:40:11.840Z,1006.07
2016-09-30T01:41:11.823Z,1006.03
2016-09-30T01:42:11.805Z,1006.03
2016-09-30T01:43:11.794Z,1006
2016-09-30T01:44:11.774Z,1005.97
2016-09-30T01:45:11.761Z,1005.96
2016-09-30T01:46:11.743Z,1005.96
2016-09-30T01:47:11.733Z,1005.95
2016-09-30T01:48:11.716Z,1005.94
2016-09-30T01:49:11.701Z,1005.92
2016-09-30T01:50:11.697Z,1005.96
2016-09-30T01:51:11.666Z,1005.94
2016-09-30T01:52:11.656Z,1005.99
2016-09-30T01:53:11.635Z,1006
2016-09-30T01:54:11.623Z,1006.02
2016-09-30T01:55:11.602Z,1005.97
2016-09-30T01:56:11.588Z,1005.91
2016-09-30T01:57:11.576Z,1005.95
2016-09-30T01:58:11.563Z,1005.95
2016-09-30T01:59:11.551Z,1005.97
2016-09-30T02:00:11.535Z,1006.03
2016-09-30T02:01:11.516Z,1005.95
2016-09-30T02:02:11.501Z,1005.94
2016-09-30T02:03:11.484Z,1005.9
2016-09-30T02:04:11.463Z,1005.93
2016-09-30T02:05:11.457Z,1005.92
2016-09-30T02:06:11.437Z,1005.96
2016-09-30T02:07:11.428Z,1005.94
2016-09-30T02:08:11.406Z,1005.91
2016-09-30T02:09:11.397Z,1005.93
2016-09-30T02:10:11.376Z,1005.97
2016-09-30T02:11:11.356Z,1005.96
2016-09-30T02:12:11.343Z,1005.95
2016-09-30T02:13:11.326Z,1005.98
2016-09-30T02:14:11.310Z,1005.99
2016-09-30T02:15:11.294Z,1006.03
2016-09-30T02:16:11.285Z,1006.02
2016-09-30T02:17:11.264Z,1006.02
2016-09-30T02:18:11.257Z,1005.98
2016-09-30T02:19:11.236Z,1006.01
2016-09-30T02:20:11.217Z,1005.98
2016-09-30T02:21:11.210Z,1005.93
2016-09-30T02:22:11.182Z,1005.92
2016-09-30T02:23:11.175Z,1005.93
2016-09-30T02:24:11.155Z,1005.89
2016-09-30T02:25:11.143Z,1005.86
2016-09-30T02:26:11.122Z,1005.85
2016-09-30T02:27:11.109Z,1005.89
2016-09-30T02:28:11.093Z,1005.93
2016-09-30T02:29:11.076Z,1005.86
2016-09-30T02:30:11.061Z,1005.89
2016-09-30T02:31:11.045Z,1005.94
2016-09-30T02:32:11.036Z,1005.9
2016-09-30T02:33:11.010Z,1005.86
2016-09-30T02:34:10.994Z,1005.84
2016-09-30T02:35:10.986Z,1005.82
2016-09-30T02:36:10.976Z,1005.84
2016-09-30T02:37:10.952Z,1005.89
2016-09-30T02:38:10.936Z,1005.85
2016-09-30T02:39:10.923Z,1005.88
2016-09-30T02:40:10.919Z,1005.92
2016-09-30T02:41:10.897Z,1005.9
2016-09-30T02:42:10.875Z,1005.86
2016-09-30T02:43:10.862Z,1005.9
2016-09-30T02:44:10.847Z,1005.93
2016-09-30T02:45:10.829Z,1005.9
2016-09-30T02:46:10.811Z,1005.95
2016-09-30T02:47:10.798Z,1005.98
2016-09-30T02:48:10.778Z,1005.99
2016-09-30T02:49:10.766Z,1006.01
2016-09-30T02:50:10.750Z,1006.02
2016-09-30T02:51:10.737Z,1006.08
2016-09-30T02:52:10.716Z,1006.03
2016-09-30T02:53:10.706Z,1006.02
2016-09-30T02:54:10.684Z,1006.01
2016-09-30T02:55:10.797Z,1005.92
2016-09-30T02:56:10.654Z,1005.95
2016-09-30T02:57:10.646Z,1005.91
2016-09-30T02:58:10.623Z,1005.93
2016-09-30T02:59:10.611Z,1005.9
2016-09-30T03:00:10.591Z,1005.97
2016-09-30T03:01:10.587Z,1005.95
2016-09-30T03:02:10.561Z,1005.97
2016-09-30T03:03:10.547Z,1006
2016-09-30T03:04:10.531Z,1006
2016-09-30T03:05:10.516Z,1005.99
2016-09-30T03:06:10.500Z,1006
2016-09-30T03:07:10.486Z,1005.99
2016-09-30T03:08:10.463Z,1005.98
2016-09-30T03:09:10.447Z,1005.98
2016-09-30T03:10:10.437Z,1005.96
2016-09-30T03:11:10.424Z,1005.98
2016-09-30T03:12:10.399Z,1005.96
2016-09-30T03:13:10.390Z,1005.91
2016-09-30T03:14:10.376Z,1005.94
2016-09-30T03:15:10.358Z,1005.92
2016-09-30T03:16:10.345Z,1005.96
2016-09-30T03:17:10.327Z,1005.93
2016-09-30T03:18:10.313Z,1005.91
2016-09-30T03:19:10.297Z,1005.93
2016-09-30T03:20:10.287Z,1005.96
2016-09-30T03:21:10.267Z,1005.94
2016-09-30T03:22:10.244Z,1005.97
2016-09-30T03:23:10.233Z,1005.97
2016-09-30T03:24:10.217Z,1005.94
2016-09-30T03:25:10.204Z,1005.97
2016-09-30T03:26:10.186Z,1005.97
2016-09-30T03:27:10.174Z,1005.92
2016-09-30T03:28:10.150Z,1005.9
2016-09-30T03:29:10.134Z,1005.96
2016-09-30T03:30:10.127Z,1006
2016-09-30T03:31:10.107Z,1006.03
2016-09-30T03:32:10.097Z,1006.08
2016-09-30T03:33:10.074Z,1006.03
2016-09-30T03:34:10.062Z,1006.01
2016-09-30T03:35:10.045Z,1005.99
2016-09-30T03:36:10.037Z,1005.98
2016-09-30T03:37:10.015Z,1006
2016-09-30T03:38:09.996Z,1006.05
2016-09-30T03:39:09.982Z,1006.02
2016-09-30T03:40:09.966Z,1005.99
2016-09-30T03:41:09.954Z,1005.98
2016-09-30T03:42:09.936Z,1005.99
2016-09-30T03:43:09.919Z,1005.99
2016-09-30T03:44:09.898Z,1006.04
2016-09-30T03:45:09.887Z,1006.03
2016-09-30T03:46:09.872Z,1006.06
2016-09-30T03:47:09.855Z,1006.07
2016-09-30T03:48:09.835Z,1006.06
2016-09-30T03:49:09.822Z,1006.04
2016-09-30T03:50:09.808Z,1006.05
2016-09-30T03:51:09.796Z,1006.04
2016-09-30T03:52:09.776Z,1006.11
2016-09-30T03:53:09.762Z,1006.09
2016-09-30T03:54:09.742Z,1006.07
2016-09-30T03:55:09.729Z,1006.06
2016-09-30T03:56:09.716Z,1006.1
2016-09-30T03:57:09.701Z,1006.08
2016-09-30T03:58:09.684Z,1006.11
2016-09-30T03:59:09.663Z,1006.07
2016-09-30T04:00:09.646Z,1006.05
2016-09-30T04:01:09.636Z,1006
2016-09-30T04:02:09.619Z,1005.99
2016-09-30T04:03:09.607Z,1006.01
2016-09-30T04:04:09.586Z,1006.02
2016-09-30T04:05:09.569Z,1006.04
2016-09-30T04:06:09.554Z,1005.99
2016-09-30T04:07:09.544Z,1006.05
2016-09-30T04:08:09.522Z,1006.07
2016-09-30T04:09:09.512Z,1006.06
2016-09-30T04:10:09.493Z,1006.08
2016-09-30T04:11:09.477Z,1006.11
2016-09-30T04:12:09.466Z,1006.13
2016-09-30T04:13:09.444Z,1006.09
2016-09-30T04:14:09.429Z,1006.08
2016-09-30T04:15:09.413Z,1006.11
2016-09-30T04:16:09.405Z,1006.11
2016-09-30T04:17:09.387Z,1006.06
2016-09-30T04:18:09.366Z,1006.15
2016-09-30T04:19:09.357Z,1006.15
2016-09-30T04:20:09.333Z,1006.15
2016-09-30T04:21:09.322Z,1006.14
2016-09-30T04:22:09.300Z,1006.15
2016-09-30T04:23:09.287Z,1006.13
2016-09-30T04:24:09.272Z,1006.16
2016-09-30T04:25:09.257Z,1006.13
2016-09-30T04:26:09.240Z,1006.1
2016-09-30T04:27:09.227Z,1006.12
2016-09-30T04:28:09.217Z,1006.13
2016-09-30T04:29:09.192Z,1006.11
2016-09-30T04:30:09.177Z,1006.14
2016-09-30T04:31:09.164Z,1006.15
2016-09-30T04:32:09.144Z,1006.16
2016-09-30T04:33:09.136Z,1006.13
2016-09-30T04:34:09.118Z,1006.1
2016-09-30T04:35:09.103Z,1006.08
2016-09-30T04:36:09.083Z,1006.1
2016-09-30T04:37:09.069Z,1006.11
2016-09-30T04:38:09.058Z,1006.11
2016-09-30T04:39:09.035Z,1006.11
2016-09-30T04:40:09.025Z,1006.1
2016-09-30T04:41:09.008Z,1006.14
2016-09-30T04:42:08.994Z,1006.1
2016-09-30T04:43:08.978Z,1006.04
2016-09-30T04:44:08.958Z,1006.16
2016-09-30T04:45:08.946Z,1006.2
2016-09-30T04:46:08.921Z,1006.22
2016-09-30T04:47:08.915Z,1006.2
2016-09-30T04:48:08.898Z,1006.21
2016-09-30T04:49:08.877Z,1006.19
2016-09-30T04:50:08.866Z,1006.19
2016-09-30T04:51:08.843Z,1006.17
2016-09-30T04:52:08.832Z,1006.2
2016-09-30T04:53:08.817Z,1006.2
2016-09-30T04:54:08.795Z,1006.19
2016-09-30T04:55:08.778Z,1006.19
2016-09-30T04:56:08.762Z,1006.14
2016-09-30T04:57:08.749Z,1006.04
2016-09-30T04:58:08.737Z,1006.02
2016-09-30T04:59:08.717Z,1006.02
2016-09-30T05:00:08.700Z,1005.97
2016-09-30T05:01:08.684Z,1005.99
2016-09-30T05:02:08.674Z,1006.03
2016-09-30T05:03:08.653Z,1006.02
2016-09-30T05:04:08.635Z,1006.08
2016-09-30T05:05:08.624Z,1006.12
2016-09-30T05:06:08.604Z,1006.14
2016-09-30T05:07:08.593Z,1006.13
2016-09-30T05:08:08.577Z,1006.14
2016-09-30T05:09:08.555Z,1006.13
2016-09-30T05:10:08.545Z,1006.14
2016-09-30T05:11:08.527Z,1006.13
2016-09-30T05:12:08.516Z,1006.11
2016-09-30T05:13:08.494Z,1006.12
2016-09-30T05:14:08.486Z,1006.13
2016-09-30T05:15:08.460Z,1006.16
2016-09-30T05:16:08.447Z,1006.14
2016-09-30T05:17:08.434Z,1006.21
2016-09-30T05:18:08.414Z,1006.17
2016-09-30T05:19:08.408Z,1006.15
2016-09-30T05:20:08.380Z,1006.16
2016-09-30T05:21:08.366Z,1006.14
2016-09-30T05:22:08.349Z,1006.17
2016-09-30T05:23:08.336Z,1006.18
2016-09-30T05:24:08.317Z,1006.18
2016-09-30T05:25:08.301Z,1006.18
2016-09-30T05:26:08.284Z,1006.21
2016-09-30T05:27:08.270Z,1006.22
2016-09-30T05:28:08.252Z,1006.19
2016-09-30T05:29:08.246Z,1006.18
2016-09-30T05:30:08.224Z,1006.21
2016-09-30T05:31:08.204Z,1006.18
2016-09-30T05:32:08.194Z,1006.16
2016-09-30T05:33:08.174Z,1006.14
2016-09-30T05:34:08.164Z,1006.16
2016-09-30T05:35:08.149Z,1006.14
2016-09-30T05:36:08.124Z,1006.15
2016-09-30T05:37:08.109Z,1006.19
2016-09-30T05:38:08.098Z,1006.17
2016-09-30T05:39:08.084Z,1006.18
2016-09-30T05:40:08.062Z,1006.2
2016-09-30T05:41:08.058Z,1006.17
2016-09-30T05:42:08.035Z,1006.16
2016-09-30T05:43:08.019Z,1006.15
2016-09-30T05:44:08.007Z,1006.15
2016-09-30T05:45:07.988Z,1006.17
2016-09-30T05:46:07.969Z,1006.2
2016-09-30T05:47:07.950Z,1006.22
2016-09-30T05:48:07.939Z,1006.27
2016-09-30T05:49:07.924Z,1006.22
2016-09-30T05:50:07.905Z,1006.21
2016-09-30T05:51:07.894Z,1006.22
2016-09-30T05:52:07.875Z,1006.22
2016-09-30T05:53:07.869Z,1006.22
2016-09-30T05:54:07.842Z,1006.26
2016-09-30T05:55:07.829Z,1006.25
2016-09-30T05:56:07.809Z,1006.29
2016-09-30T05:57:07.796Z,1006.3
2016-09-30T05:58:07.789Z,1006.33
2016-09-30T05:59:07.768Z,1006.3
2016-09-30T06:00:07.757Z,1006.25
2016-09-30T06:01:07.736Z,1006.22
2016-09-30T06:02:07.715Z,1006.23
2016-09-30T06:03:07.708Z,1006.27
2016-09-30T06:04:07.695Z,1006.29
2016-09-30T06:05:07.678Z,1006.29
2016-09-30T06:06:07.658Z,1006.32
2016-09-30T06:07:07.643Z,1006.33
2016-09-30T06:08:07.627Z,1006.35
2016-09-30T06:09:07.611Z,1006.31
2016-09-30T06:10:07.646Z,1006.32
2016-09-30T06:11:07.576Z,1006.25
2016-09-30T06:12:07.567Z,1006.21
2016-09-30T06:13:07.544Z,1006.21
2016-09-30T06:14:07.537Z,1006.22
2016-09-30T06:15:07.515Z,1006.22
2016-09-30T06:16:07.504Z,1006.27
2016-09-30T06:17:07.486Z,1006.29
2016-09-30T06:18:07.475Z,1006.26
2016-09-30T06:19:07.453Z,1006.25
2016-09-30T06:20:07.435Z,1006.26
2016-09-30T06:21:07.426Z,1006.27
2016-09-30T06:22:07.406Z,1006.29
2016-09-30T06:23:07.396Z,1006.26
2016-09-30T06:24:07.378Z,1006.28
2016-09-30T06:25:07.362Z,1006.28
2016-09-30T06:26:07.343Z,1006.25
2016-09-30T06:27:07.330Z,1006.27
2016-09-30T06:28:07.318Z,1006.32
2016-09-30T06:29:07.298Z,1006.31
2016-09-30T06:30:07.285Z,1006.38
2016-09-30T06:31:07.268Z,1006.34
2016-09-30T06:32:07.247Z,1006.31
2016-09-30T06:33:07.285Z,1006.36
2016-09-30T06:34:07.218Z,1006.42
2016-09-30T06:35:07.202Z,1006.41
2016-09-30T06:36:07.189Z,1006.4
2016-09-30T06:37:07.174Z,1006.38
2016-09-30T06:38:07.157Z,1006.32
2016-09-30T06:39:07.145Z,1006.32
2016-09-30T06:40:07.128Z,1006.35
2016-09-30T06:41:07.114Z,1006.33
2016-09-30T06:42:07.105Z,1006.37
2016-09-30T06:43:07.081Z,1006.37
2016-09-30T06:44:07.065Z,1006.41
2016-09-30T06:45:07.048Z,1006.43
2016-09-30T06:46:07.033Z,1006.47
2016-09-30T06:47:07.018Z,1006.45
2016-09-30T06:48:07.003Z,1006.47
2016-09-30T06:49:06.985Z,1006.44
2016-09-30T06:50:06.967Z,1006.45
2016-09-30T06:51:06.953Z,1006.44
2016-09-30T06:52:06.939Z,1006.44
2016-09-30T06:53:06.924Z,1006.41
2016-09-30T06:54:06.905Z,1006.45
2016-09-30T06:55:06.893Z,1006.48
2016-09-30T06:56:06.876Z,1006.5
2016-09-30T06:57:06.859Z,1006.51
2016-09-30T06:58:06.843Z,1006.51
2016-09-30T06:59:06.829Z,1006.53
2016-09-30T07:00:06.816Z,1006.57
2016-09-30T07:01:06.800Z,1006.55
2016-09-30T07:02:06.798Z,1006.58
2016-09-30T07:03:06.765Z,1006.64
2016-09-30T07:04:06.756Z,1006.64
2016-09-30T07:05:06.739Z,1006.65
2016-09-30T07:06:06.729Z,1006.67
2016-09-30T07:07:06.703Z,1006.68
2016-09-30T07:08:06.685Z,1006.65
2016-09-30T07:09:06.674Z,1006.69
2016-09-30T07:10:06.659Z,1006.69
2016-09-30T07:11:06.642Z,1006.66
2016-09-30T07:12:06.624Z,1006.67
2016-09-30T07:13:06.609Z,1006.71
2016-09-30T07:14:06.594Z,1006.71
2016-09-30T07:15:06.578Z,1006.7
2016-09-30T07:16:06.568Z,1006.73
2016-09-30T07:17:06.544Z,1006.75
2016-09-30T07:18:06.534Z,1006.75
2016-09-30T07:19:06.513Z,1006.8
2016-09-30T07:20:06.504Z,1006.8
2016-09-30T07:21:06.487Z,1006.81
2016-09-30T07:22:06.464Z,1006.84
2016-09-30T07:23:06.454Z,1006.84
2016-09-30T07:24:06.439Z,1006.81
2016-09-30T07:25:06.423Z,1006.83
2016-09-30T07:26:06.408Z,1006.86
2016-09-30T07:27:06.392Z,1006.92
2016-09-30T07:28:06.377Z,1006.89
2016-09-30T07:29:06.361Z,1006.95
2016-09-30T07:30:06.349Z,1006.93
2016-09-30T07:31:06.327Z,1007.02
2016-09-30T07:32:06.316Z,1006.93
2016-09-30T07:33:06.294Z,1006.96
2016-09-30T07:34:06.287Z,1006.99
2016-09-30T07:35:06.263Z,1006.95
2016-09-30T07:36:06.252Z,1007.03
2016-09-30T07:37:06.235Z,1006.98
2016-09-30T07:38:06.224Z,1006.99
2016-09-30T07:39:06.203Z,1007.01
2016-09-30T07:40:06.192Z,1006.99
2016-09-30T07:41:06.173Z,1007
2016-09-30T07:42:06.166Z,1006.99
2016-09-30T07:43:06.143Z,1007.02
2016-09-30T07:44:06.133Z,1007.08
2016-09-30T07:45:06.115Z,1006.98
2016-09-30T07:46:06.106Z,1007
2016-09-30T07:47:06.085Z,1006.99
2016-09-30T07:48:06.067Z,1007
2016-09-30T07:49:06.123Z,1006.94
2016-09-30T07:50:06.045Z,1006.98
2016-09-30T07:51:06.047Z,1006.99
2016-09-30T07:52:06.040Z,1007.04
2016-09-30T07:53:05.995Z,1007.04
2016-09-30T07:54:06.013Z,1006.95
2016-09-30T07:55:05.964Z,1006.93
2016-09-30T07:56:05.950Z,1006.97
2016-09-30T07:57:05.934Z,1006.98
2016-09-30T07:58:05.918Z,1006.96
2016-09-30T07:59:05.904Z,1006.96
2016-09-30T08:00:05.893Z,1006.95
2016-09-30T08:01:05.870Z,1006.96
2016-09-30T08:02:05.853Z,1006.98
2016-09-30T08:03:05.848Z,1007.03
2016-09-30T08:04:05.827Z,1007.02
2016-09-30T08:05:05.814Z,1007.05
2016-09-30T08:06:05.799Z,1007.05
2016-09-30T08:07:05.780Z,1007.07
2016-09-30T08:08:05.771Z,1007.09
2016-09-30T08:09:05.750Z,1007.08
2016-09-30T08:10:05.735Z,1007.12
2016-09-30T08:11:05.724Z,1007.06
2016-09-30T08:12:05.715Z,1007.03
2016-09-30T08:13:05.698Z,1007.07
2016-09-30T08:14:05.677Z,1007.03
2016-09-30T08:15:05.666Z,1007.13
2016-09-30T08:16:05.647Z,1007.14
2016-09-30T08:17:05.634Z,1007.19
2016-09-30T08:18:05.623Z,1007.2
2016-09-30T08:19:05.608Z,1007.29
2016-09-30T08:20:05.587Z,1007.23
2016-09-30T08:21:05.576Z,1007.29
2016-09-30T08:22:05.563Z,1007.28
2016-09-30T08:23:05.544Z,1007.25
2016-09-30T08:24:05.534Z,1007.26
2016-09-30T08:25:05.518Z,1007.28
2016-09-30T08:26:05.506Z,1007.35
2016-09-30T08:27:05.495Z,1007.35
2016-09-30T08:28:05.476Z,1007.42
2016-09-30T08:29:05.466Z,1007.31
2016-09-30T08:30:05.448Z,1007.34
2016-09-30T08:31:05.435Z,1007.27
2016-09-30T08:32:05.428Z,1007.28
2016-09-30T08:33:05.415Z,1007.28
2016-09-30T08:34:05.396Z,1007.29
2016-09-30T08:35:05.387Z,1007.31
2016-09-30T08:36:05.374Z,1007.28
2016-09-30T08:37:05.359Z,1007.28
2016-09-30T08:38:05.347Z,1007.26
2016-09-30T08:39:05.338Z,1007.27
2016-09-30T08:40:05.321Z,1007.28
2016-09-30T08:41:05.315Z,1007.29
2016-09-30T08:42:05.296Z,1007.2
2016-09-30T08:43:05.288Z,1007.22
2016-09-30T08:44:05.275Z,1007.22
2016-09-30T08:45:05.263Z,1007.24
2016-09-30T08:46:05.256Z,1007.24
2016-09-30T08:47:05.247Z,1007.28
2016-09-30T08:48:05.227Z,1007.23
2016-09-30T08:49:05.217Z,1007.3
2016-09-30T08:50:05.207Z,1007.31
2016-09-30T08:51:05.195Z,1007.32
2016-09-30T08:52:05.187Z,1007.38
2016-09-30T08:53:05.173Z,1007.31
2016-09-30T08:54:05.167Z,1007.35
2016-09-30T08:55:05.156Z,1007.42
2016-09-30T08:56:05.146Z,1007.43
2016-09-30T08:57:05.133Z,1007.47
2016-09-30T08:58:05.126Z,1007.42
2016-09-30T08:59:05.113Z,1007.42
2016-09-30T09:00:05.113Z,1007.48
2016-09-30T09:01:05.096Z,1007.45
2016-09-30T09:02:05.092Z,1007.39
2016-09-30T09:03:05.073Z,1007.45
2016-09-30T09:04:05.065Z,1007.31
2016-09-30T09:05:05.054Z,1007.35
2016-09-30T09:06:05.041Z,1007.35
2016-09-30T09:07:05.033Z,1007.32
2016-09-30T09:08:05.025Z,1007.33
2016-09-30T09:09:05.008Z,1007.37
2016-09-30T09:10:05.032Z,1007.38
2016-09-30T09:11:04.992Z,1007.38
2016-09-30T09:12:04.977Z,1007.38
2016-09-30T09:13:04.971Z,1007.33
2016-09-30T09:14:05.057Z,1007.32
2016-09-30T09:15:04.955Z,1007.39
2016-09-30T09:16:04.994Z,1007.4
2016-09-30T09:17:04.922Z,1007.38
2016-09-30T09:18:04.926Z,1007.41
2016-09-30T09:19:05.116Z,1007.49
2016-09-30T09:20:04.892Z,1007.39
2016-09-30T09:21:04.883Z,1007.41
2016-09-30T09:22:04.876Z,1007.41
2016-09-30T09:23:04.871Z,1007.36
2016-09-30T09:24:04.852Z,1007.3
2016-09-30T09:25:04.847Z,1007.41
2016-09-30T09:26:04.831Z,1007.34
2016-09-30T09:27:04.824Z,1007.47
2016-09-30T09:28:04.815Z,1007.41
2016-09-30T09:29:04.808Z,1007.31
2016-09-30T09:30:04.794Z,1007.3
2016-09-30T09:31:04.783Z,1007.32
2016-09-30T09:32:04.767Z,1007.32
2016-09-30T09:33:04.760Z,1007.29
2016-09-30T09:34:04.747Z,1007.32
2016-09-30T09:35:04.738Z,1007.36
2016-09-30T09:36:04.728Z,1007.37
2016-09-30T09:37:04.723Z,1007.38
2016-09-30T09:38:04.709Z,1007.45
2016-09-30T09:39:04.703Z,1007.34
2016-09-30T09:40:04.692Z,1007.32
2016-09-30T09:41:04.687Z,1007.3
2016-09-30T09:42:04.668Z,1007.28
2016-09-30T09:43:04.664Z,1007.26
2016-09-30T09:44:04.656Z,1007.24
2016-09-30T09:45:04.639Z,1007.23
2016-09-30T09:46:04.624Z,1007.19
2016-09-30T09:47:04.612Z,1007.15
2016-09-30T09:48:04.611Z,1007.15
2016-09-30T09:49:04.594Z,1007.18
2016-09-30T09:50:04.587Z,1007.24
2016-09-30T09:51:04.580Z,1007.19
2016-09-30T09:52:04.578Z,1007.23
2016-09-30T09:53:04.553Z,1007.3
2016-09-30T09:54:04.534Z,1007.28
2016-09-30T09:55:04.523Z,1007.33
2016-09-30T09:56:04.509Z,1007.33
2016-09-30T09:57:04.504Z,1007.36
2016-09-30T09:58:04.492Z,1007.37
2016-09-30T09:59:04.478Z,1007.42
2016-09-30T10:00:04.467Z,1007.34
2016-09-30T10:01:04.453Z,1007.33
2016-09-30T10:02:04.442Z,1007.23
2016-09-30T10:03:04.437Z,1007.3
2016-09-30T10:04:04.418Z,1007.24
2016-09-30T10:05:04.407Z,1007.32
2016-09-30T10:06:04.394Z,1007.23
2016-09-30T10:07:04.384Z,1007.35
2016-09-30T10:08:04.364Z,1007.33
2016-09-30T10:09:04.361Z,1007.33
2016-09-30T10:10:04.345Z,1007.33
2016-09-30T10:11:04.332Z,1007.35
2016-09-30T10:12:04.314Z,1007.37
2016-09-30T10:13:04.306Z,1007.38
2016-09-30T10:14:04.298Z,1007.38
2016-09-30T10:15:04.274Z,1007.42
2016-09-30T10:16:04.264Z,1007.41
2016-09-30T10:17:04.259Z,1007.46
2016-09-30T10:18:04.239Z,1007.45
2016-09-30T10:19:04.226Z,1007.38
2016-09-30T10:20:04.217Z,1007.34
2016-09-30T10:21:04.200Z,1007.33
2016-09-30T10:22:04.198Z,1007.27
2016-09-30T10:23:04.174Z,1007.29
2016-09-30T10:24:04.168Z,1007.2
2016-09-30T10:25:04.156Z,1007.25
2016-09-30T10:26:04.135Z,1007.19
2016-09-30T10:27:04.125Z,1007.17
2016-09-30T10:28:04.118Z,1007.26
2016-09-30T10:29:04.106Z,1007.24
2016-09-30T10:30:04.085Z,1007.32
2016-09-30T10:31:04.074Z,1007.23
2016-09-30T10:32:04.062Z,1007.37
2016-09-30T10:33:04.056Z,1007.37
2016-09-30T10:34:04.037Z,1007.38
2016-09-30T10:35:04.024Z,1007.29
2016-09-30T10:36:04.013Z,1007.27
2016-09-30T10:37:04.006Z,1007.31
2016-09-30T10:38:03.984Z,1007.33
2016-09-30T10:39:03.975Z,1007.37
2016-09-30T10:40:03.966Z,1007.34
2016-09-30T10:41:03.947Z,1007.33
2016-09-30T10:42:03.939Z,1007.27
2016-09-30T10:43:03.922Z,1007.34
2016-09-30T10:44:03.905Z,1007.33
2016-09-30T10:45:03.894Z,1007.38
2016-09-30T10:46:03.883Z,1007.38
2016-09-30T10:47:03.872Z,1007.28
2016-09-30T10:48:03.861Z,1007.25
2016-09-30T10:49:03.845Z,1007.28
2016-09-30T10:50:03.842Z,1007.27
2016-09-30T10:51:03.820Z,1007.33
2016-09-30T10:52:03.804Z,1007.32
2016-09-30T10:53:03.795Z,1007.32
2016-09-30T10:54:03.784Z,1007.3
2016-09-30T10:55:03.768Z,1007.39
2016-09-30T10:56:03.755Z,1007.38
2016-09-30T10:57:03.741Z,1007.36
2016-09-30T10:58:03.729Z,1007.36
2016-09-30T10:59:03.726Z,1007.36
2016-09-30T11:00:03.702Z,1007.38
2016-09-30T11:01:03.696Z,1007.35
2016-09-30T11:02:03.684Z,1007.32
2016-09-30T11:03:03.670Z,1007.32
2016-09-30T11:04:03.659Z,1007.36
2016-09-30T11:05:03.641Z,1007.42
2016-09-30T11:06:03.625Z,1007.43
2016-09-30T11:07:03.615Z,1007.4
2016-09-30T11:08:03.599Z,1007.41
2016-09-30T11:09:03.596Z,1007.38
2016-09-30T11:10:03.587Z,1007.38
2016-09-30T11:11:03.564Z,1007.32
2016-09-30T11:12:03.568Z,1007.3
2016-09-30T11:13:03.541Z,1007.41
2016-09-30T11:14:03.622Z,1007.39
2016-09-30T11:15:03.514Z,1007.36
2016-09-30T11:16:03.504Z,1007.31
2016-09-30T11:17:03.488Z,1007.3
2016-09-30T11:18:03.479Z,1007.36
2016-09-30T11:19:03.458Z,1007.36
2016-09-30T11:20:03.459Z,1007.39
2016-09-30T11:21:03.435Z,1007.34
2016-09-30T11:22:03.428Z,1007.42
2016-09-30T11:23:03.416Z,1007.43
2016-09-30T11:24:03.415Z,1007.48
2016-09-30T11:25:03.385Z,1007.42
2016-09-30T11:26:03.478Z,1007.42
2016-09-30T11:27:03.362Z,1007.45
2016-09-30T11:28:03.356Z,1007.49
2016-09-30T11:29:03.334Z,1007.46
2016-09-30T11:30:03.326Z,1007.54
2016-09-30T11:31:03.314Z,1007.56
2016-09-30T11:32:03.309Z,1007.53
2016-09-30T11:33:03.288Z,1007.57
2016-09-30T11:34:03.320Z,1007.57
2016-09-30T11:35:03.261Z,1007.57
2016-09-30T11:36:03.256Z,1007.49
2016-09-30T11:37:03.237Z,1007.5
2016-09-30T11:38:03.225Z,1007.45
2016-09-30T11:39:03.220Z,1007.46
2016-09-30T11:40:03.206Z,1007.39
2016-09-30T11:41:03.185Z,1007.42
2016-09-30T11:42:03.173Z,1007.42
2016-09-30T11:43:03.169Z,1007.39
2016-09-30T11:44:03.155Z,1007.45
2016-09-30T11:45:03.137Z,1007.4
2016-09-30T11:46:03.126Z,1007.42
2016-09-30T11:47:03.116Z,1007.37
2016-09-30T11:48:03.103Z,1007.41
2016-09-30T11:49:03.089Z,1007.43
2016-09-30T11:50:03.075Z,1007.43
2016-09-30T11:51:03.064Z,1007.45
2016-09-30T11:52:03.055Z,1007.37
2016-09-30T11:53:03.044Z,1007.42
2016-09-30T11:54:03.026Z,1007.4
2016-09-30T11:55:03.019Z,1007.45
2016-09-30T11:56:03.005Z,1007.43
2016-09-30T11:57:02.990Z,1007.41
2016-09-30T11:58:02.977Z,1007.47
2016-09-30T11:59:02.965Z,1007.44
2016-09-30T12:00:02.955Z,1007.5
2016-09-30T12:01:02.947Z,1007.48
2016-09-30T12:02:02.935Z,1007.47
2016-09-30T12:03:02.915Z,1007.43
2016-09-30T12:04:02.909Z,1007.39
2016-09-30T12:05:02.891Z,1007.45
2016-09-30T12:06:02.886Z,1007.38
2016-09-30T12:07:02.877Z,1007.46
2016-09-30T12:08:02.861Z,1007.45